sensor_id;sensor_type;location;lat;lon;timestamp;temperature;humidity
81192;DHT22;70665;47.652;-2.730;2023-09-08T00:01:48;23.20;72.70
81192;DHT22;70665;47.652;-2.730;2023-09-08T00:04:13;23.20;72.60
81192;DHT22;70665;47.652;-2.730;2023-09-08T00:06:40;23.20;72.60
81192;DHT22;70665;47.652;-2.730;2023-09-08T00:09:06;23.20;73.40
81192;DHT22;70665;47.652;-2.730;2023-09-08T00:11:32;23.10;72.70
81192;DHT22;70665;47.652;-2.730;2023-09-08T00:13:57;23.20;72.60
81192;DHT22;70665;47.652;-2.730;2023-09-08T00:16:23;23.10;72.50
81192;DHT22;70665;47.652;-2.730;2023-09-08T00:18:49;23.10;73.00
81192;DHT22;70665;47.652;-2.730;2023-09-08T00:21:15;23.10;73.00
81192;DHT22;70665;47.652;-2.730;2023-09-08T00:23:41;23.20;73.00
81192;DHT22;70665;47.652;-2.730;2023-09-08T00:26:06;23.10;73.50
81192;DHT22;70665;47.652;-2.730;2023-09-08T00:28:32;23.00;73.70
81192;DHT22;70665;47.652;-2.730;2023-09-08T00:30:58;23.10;73.60
81192;DHT22;70665;47.652;-2.730;2023-09-08T00:33:26;23.10;73.50
81192;DHT22;70665;47.652;-2.730;2023-09-08T00:35:51;23.10;73.30
81192;DHT22;70665;47.652;-2.730;2023-09-08T00:38:19;23.10;72.80
81192;DHT22;70665;47.652;-2.730;2023-09-08T00:40:44;23.10;73.50
81192;DHT22;70665;47.652;-2.730;2023-09-08T00:43:10;23.20;72.90
81192;DHT22;70665;47.652;-2.730;2023-09-08T00:45:39;23.20;74.00
81192;DHT22;70665;47.652;-2.730;2023-09-08T00:48:06;23.10;73.10
81192;DHT22;70665;47.652;-2.730;2023-09-08T00:50:32;23.20;72.80
81192;DHT22;70665;47.652;-2.730;2023-09-08T00:52:58;23.20;72.90
81192;DHT22;70665;47.652;-2.730;2023-09-08T00:55:23;23.10;72.90
81192;DHT22;70665;47.652;-2.730;2023-09-08T00:57:50;23.10;73.10
81192;DHT22;70665;47.652;-2.730;2023-09-08T01:00:16;23.20;73.00
81192;DHT22;70665;47.652;-2.730;2023-09-08T01:02:41;23.20;73.10
81192;DHT22;70665;47.652;-2.730;2023-09-08T01:05:10;23.20;72.60
81192;DHT22;70665;47.652;-2.730;2023-09-08T01:07:36;23.20;73.10
81192;DHT22;70665;47.652;-2.730;2023-09-08T01:10:02;23.10;73.30
81192;DHT22;70665;47.652;-2.730;2023-09-08T01:12:29;23.10;73.60
81192;DHT22;70665;47.652;-2.730;2023-09-08T01:14:55;23.10;73.70
81192;DHT22;70665;47.652;-2.730;2023-09-08T01:17:21;23.10;73.30
81192;DHT22;70665;47.652;-2.730;2023-09-08T01:19:47;23.00;75.00
81192;DHT22;70665;47.652;-2.730;2023-09-08T01:22:27;23.10;73.60
81192;DHT22;70665;47.652;-2.730;2023-09-08T01:25:18;23.00;77.30
81192;DHT22;70665;47.652;-2.730;2023-09-08T01:27:54;23.00;76.90
81192;DHT22;70665;47.652;-2.730;2023-09-08T01:30:25;23.00;75.90
81192;DHT22;70665;47.652;-2.730;2023-09-08T01:32:54;23.00;74.40
81192;DHT22;70665;47.652;-2.730;2023-09-08T01:35:20;23.10;73.70
81192;DHT22;70665;47.652;-2.730;2023-09-08T01:37:46;23.10;73.70
81192;DHT22;70665;47.652;-2.730;2023-09-08T01:40:12;23.10;73.30
81192;DHT22;70665;47.652;-2.730;2023-09-08T01:42:39;23.10;73.90
81192;DHT22;70665;47.652;-2.730;2023-09-08T01:45:05;23.20;73.80
81192;DHT22;70665;47.652;-2.730;2023-09-08T01:47:32;23.10;73.80
81192;DHT22;70665;47.652;-2.730;2023-09-08T01:49:58;23.20;73.80
81192;DHT22;70665;47.652;-2.730;2023-09-08T01:52:24;23.10;73.90
81192;DHT22;70665;47.652;-2.730;2023-09-08T01:54:50;23.00;74.20
81192;DHT22;70665;47.652;-2.730;2023-09-08T01:57:15;23.00;74.40
81192;DHT22;70665;47.652;-2.730;2023-09-08T01:59:41;23.00;74.40
81192;DHT22;70665;47.652;-2.730;2023-09-08T02:02:07;22.90;74.30
81192;DHT22;70665;47.652;-2.730;2023-09-08T02:04:32;23.00;74.60
81192;DHT22;70665;47.652;-2.730;2023-09-08T02:06:58;22.90;74.60
81192;DHT22;70665;47.652;-2.730;2023-09-08T02:09:32;22.90;77.30
81192;DHT22;70665;47.652;-2.730;2023-09-08T02:11:58;22.90;75.30
81192;DHT22;70665;47.652;-2.730;2023-09-08T02:14:23;22.90;74.70
81192;DHT22;70665;47.652;-2.730;2023-09-08T02:16:49;22.80;74.60
81192;DHT22;70665;47.652;-2.730;2023-09-08T02:19:14;22.90;74.90
81192;DHT22;70665;47.652;-2.730;2023-09-08T02:21:40;22.80;75.40
81192;DHT22;70665;47.652;-2.730;2023-09-08T02:24:06;22.80;75.40
81192;DHT22;70665;47.652;-2.730;2023-09-08T02:26:31;22.70;75.60
81192;DHT22;70665;47.652;-2.730;2023-09-08T02:28:59;22.70;75.60
81192;DHT22;70665;47.652;-2.730;2023-09-08T02:31:26;22.70;75.80
81192;DHT22;70665;47.652;-2.730;2023-09-08T02:33:52;22.70;75.70
81192;DHT22;70665;47.652;-2.730;2023-09-08T02:36:17;22.70;75.70
81192;DHT22;70665;47.652;-2.730;2023-09-08T02:38:43;22.60;76.10
81192;DHT22;70665;47.652;-2.730;2023-09-08T02:41:08;22.70;75.90
81192;DHT22;70665;47.652;-2.730;2023-09-08T02:43:34;22.70;75.80
81192;DHT22;70665;47.652;-2.730;2023-09-08T02:46:00;22.70;76.10
81192;DHT22;70665;47.652;-2.730;2023-09-08T02:48:25;22.70;75.90
81192;DHT22;70665;47.652;-2.730;2023-09-08T02:50:51;22.70;75.40
81192;DHT22;70665;47.652;-2.730;2023-09-08T02:53:16;22.70;75.60
81192;DHT22;70665;47.652;-2.730;2023-09-08T02:55:42;22.70;75.50
81192;DHT22;70665;47.652;-2.730;2023-09-08T02:58:08;22.70;75.30
81192;DHT22;70665;47.652;-2.730;2023-09-08T03:00:33;22.70;75.40
81192;DHT22;70665;47.652;-2.730;2023-09-08T03:02:59;22.70;75.50
81192;DHT22;70665;47.652;-2.730;2023-09-08T03:05:24;22.70;75.70
81192;DHT22;70665;47.652;-2.730;2023-09-08T03:07:51;22.80;76.00
81192;DHT22;70665;47.652;-2.730;2023-09-08T03:10:16;22.60;75.60
81192;DHT22;70665;47.652;-2.730;2023-09-08T03:12:42;22.70;75.70
81192;DHT22;70665;47.652;-2.730;2023-09-08T03:15:08;22.60;75.50
81192;DHT22;70665;47.652;-2.730;2023-09-08T03:17:34;22.60;75.60
81192;DHT22;70665;47.652;-2.730;2023-09-08T03:20:00;22.60;75.40
81192;DHT22;70665;47.652;-2.730;2023-09-08T03:22:25;22.70;75.70
81192;DHT22;70665;47.652;-2.730;2023-09-08T03:24:51;22.60;75.90
81192;DHT22;70665;47.652;-2.730;2023-09-08T03:27:17;22.50;75.50
81192;DHT22;70665;47.652;-2.730;2023-09-08T03:29:43;22.50;75.80
81192;DHT22;70665;47.652;-2.730;2023-09-08T03:32:09;22.60;76.20
81192;DHT22;70665;47.652;-2.730;2023-09-08T03:34:34;22.60;75.90
81192;DHT22;70665;47.652;-2.730;2023-09-08T03:37:00;22.50;75.90
81192;DHT22;70665;47.652;-2.730;2023-09-08T03:39:25;22.50;76.10
81192;DHT22;70665;47.652;-2.730;2023-09-08T03:41:51;22.50;76.50
81192;DHT22;70665;47.652;-2.730;2023-09-08T03:44:16;22.50;76.10
81192;DHT22;70665;47.652;-2.730;2023-09-08T03:46:42;22.60;76.20
81192;DHT22;70665;47.652;-2.730;2023-09-08T03:49:08;22.50;76.00
81192;DHT22;70665;47.652;-2.730;2023-09-08T03:51:33;22.60;76.10
81192;DHT22;70665;47.652;-2.730;2023-09-08T03:53:59;22.50;75.80
81192;DHT22;70665;47.652;-2.730;2023-09-08T03:56:25;22.60;76.10
81192;DHT22;70665;47.652;-2.730;2023-09-08T03:58:51;22.50;76.00
81192;DHT22;70665;47.652;-2.730;2023-09-08T04:01:17;22.60;75.90
81192;DHT22;70665;47.652;-2.730;2023-09-08T04:03:42;22.60;76.10
81192;DHT22;70665;47.652;-2.730;2023-09-08T04:06:09;22.60;75.90
81192;DHT22;70665;47.652;-2.730;2023-09-08T04:08:34;22.50;75.80
81192;DHT22;70665;47.652;-2.730;2023-09-08T04:11:00;22.40;76.30
81192;DHT22;70665;47.652;-2.730;2023-09-08T04:13:26;22.50;76.50
81192;DHT22;70665;47.652;-2.730;2023-09-08T04:15:51;22.30;76.50
81192;DHT22;70665;47.652;-2.730;2023-09-08T04:18:17;22.40;76.30
81192;DHT22;70665;47.652;-2.730;2023-09-08T04:20:43;22.40;76.40
81192;DHT22;70665;47.652;-2.730;2023-09-08T04:23:08;22.50;76.50
81192;DHT22;70665;47.652;-2.730;2023-09-08T04:25:34;22.40;76.30
81192;DHT22;70665;47.652;-2.730;2023-09-08T04:28:02;22.50;76.60
81192;DHT22;70665;47.652;-2.730;2023-09-08T04:30:27;22.40;76.60
81192;DHT22;70665;47.652;-2.730;2023-09-08T04:32:53;22.40;76.90
81192;DHT22;70665;47.652;-2.730;2023-09-08T04:35:19;22.30;77.10
81192;DHT22;70665;47.652;-2.730;2023-09-08T04:37:44;22.40;76.60
81192;DHT22;70665;47.652;-2.730;2023-09-08T04:40:10;22.30;76.50
81192;DHT22;70665;47.652;-2.730;2023-09-08T04:42:36;22.30;76.50
81192;DHT22;70665;47.652;-2.730;2023-09-08T04:45:01;22.30;76.90
81192;DHT22;70665;47.652;-2.730;2023-09-08T04:47:27;22.30;77.00
81192;DHT22;70665;47.652;-2.730;2023-09-08T04:49:53;22.20;77.00
81192;DHT22;70665;47.652;-2.730;2023-09-08T04:52:19;22.20;77.10
81192;DHT22;70665;47.652;-2.730;2023-09-08T04:54:44;22.20;77.40
81192;DHT22;70665;47.652;-2.730;2023-09-08T04:57:12;22.10;77.20
81192;DHT22;70665;47.652;-2.730;2023-09-08T04:59:38;22.10;77.00
81192;DHT22;70665;47.652;-2.730;2023-09-08T05:02:04;22.00;77.00
81192;DHT22;70665;47.652;-2.730;2023-09-08T05:04:30;22.00;77.10
81192;DHT22;70665;47.652;-2.730;2023-09-08T05:06:55;22.10;77.10
81192;DHT22;70665;47.652;-2.730;2023-09-08T05:09:21;22.00;77.30
81192;DHT22;70665;47.652;-2.730;2023-09-08T05:11:47;22.10;77.10
81192;DHT22;70665;47.652;-2.730;2023-09-08T05:14:12;22.00;77.50
81192;DHT22;70665;47.652;-2.730;2023-09-08T05:16:38;22.00;77.10
81192;DHT22;70665;47.652;-2.730;2023-09-08T05:19:15;22.10;77.20
81192;DHT22;70665;47.652;-2.730;2023-09-08T05:21:40;22.10;77.30
81192;DHT22;70665;47.652;-2.730;2023-09-08T05:24:07;22.00;77.40
81192;DHT22;70665;47.652;-2.730;2023-09-08T05:26:35;22.00;77.50
81192;DHT22;70665;47.652;-2.730;2023-09-08T05:29:01;22.00;77.90
81192;DHT22;70665;47.652;-2.730;2023-09-08T05:31:27;22.00;77.40
81192;DHT22;70665;47.652;-2.730;2023-09-08T05:33:52;21.90;77.20
81192;DHT22;70665;47.652;-2.730;2023-09-08T05:36:18;22.00;77.20
81192;DHT22;70665;47.652;-2.730;2023-09-08T05:38:44;21.90;77.70
81192;DHT22;70665;47.652;-2.730;2023-09-08T05:41:09;22.00;77.40
81192;DHT22;70665;47.652;-2.730;2023-09-08T05:43:35;21.90;77.60
81192;DHT22;70665;47.652;-2.730;2023-09-08T05:46:01;21.90;77.30
81192;DHT22;70665;47.652;-2.730;2023-09-08T05:48:26;21.90;77.60
81192;DHT22;70665;47.652;-2.730;2023-09-08T05:50:52;21.90;77.90
81192;DHT22;70665;47.652;-2.730;2023-09-08T05:53:17;21.90;78.10
81192;DHT22;70665;47.652;-2.730;2023-09-08T05:55:43;22.00;78.00
81192;DHT22;70665;47.652;-2.730;2023-09-08T05:58:09;21.90;77.80
81192;DHT22;70665;47.652;-2.730;2023-09-08T06:00:35;21.90;77.60
81192;DHT22;70665;47.652;-2.730;2023-09-08T06:03:00;22.00;77.60
81192;DHT22;70665;47.652;-2.730;2023-09-08T06:05:26;22.00;77.60
81192;DHT22;70665;47.652;-2.730;2023-09-08T06:07:51;22.10;77.30
81192;DHT22;70665;47.652;-2.730;2023-09-08T06:10:17;22.10;77.30
81192;DHT22;70665;47.652;-2.730;2023-09-08T06:12:43;22.20;77.30
81192;DHT22;70665;47.652;-2.730;2023-09-08T06:15:09;22.20;77.70
81192;DHT22;70665;47.652;-2.730;2023-09-08T06:17:34;22.30;77.30
81192;DHT22;70665;47.652;-2.730;2023-09-08T06:20:00;22.40;76.90
81192;DHT22;70665;47.652;-2.730;2023-09-08T06:22:25;22.70;76.40
81192;DHT22;70665;47.652;-2.730;2023-09-08T06:24:51;22.70;76.30
81192;DHT22;70665;47.652;-2.730;2023-09-08T06:27:17;22.90;75.90
81192;DHT22;70665;47.652;-2.730;2023-09-08T06:29:42;23.00;75.60
81192;DHT22;70665;47.652;-2.730;2023-09-08T06:32:09;23.20;75.40
81192;DHT22;70665;47.652;-2.730;2023-09-08T06:34:35;23.20;75.10
81192;DHT22;70665;47.652;-2.730;2023-09-08T06:37:01;23.30;75.10
81192;DHT22;70665;47.652;-2.730;2023-09-08T06:39:28;23.20;75.30
81192;DHT22;70665;47.652;-2.730;2023-09-08T06:41:53;23.40;75.30
81192;DHT22;70665;47.652;-2.730;2023-09-08T06:44:22;23.50;75.90
81192;DHT22;70665;47.652;-2.730;2023-09-08T06:46:47;23.60;75.40
81192;DHT22;70665;47.652;-2.730;2023-09-08T06:49:13;23.60;74.10
81192;DHT22;70665;47.652;-2.730;2023-09-08T06:51:39;23.80;74.00
81192;DHT22;70665;47.652;-2.730;2023-09-08T06:54:05;23.80;74.00
81192;DHT22;70665;47.652;-2.730;2023-09-08T06:56:31;24.00;72.90
81192;DHT22;70665;47.652;-2.730;2023-09-08T06:58:56;24.20;72.90
81192;DHT22;70665;47.652;-2.730;2023-09-08T07:01:24;24.20;72.70
81192;DHT22;70665;47.652;-2.730;2023-09-08T07:03:50;24.50;72.20
81192;DHT22;70665;47.652;-2.730;2023-09-08T07:06:16;24.60;71.60
81192;DHT22;70665;47.652;-2.730;2023-09-08T07:08:41;24.80;70.80
81192;DHT22;70665;47.652;-2.730;2023-09-08T07:11:07;24.80;70.70
81192;DHT22;70665;47.652;-2.730;2023-09-08T07:13:33;25.00;70.40
81192;DHT22;70665;47.652;-2.730;2023-09-08T07:15:59;25.10;70.40
81192;DHT22;70665;47.652;-2.730;2023-09-08T07:18:24;25.10;70.00
81192;DHT22;70665;47.652;-2.730;2023-09-08T07:20:50;25.20;70.60
81192;DHT22;70665;47.652;-2.730;2023-09-08T07:23:19;25.20;71.50
81192;DHT22;70665;47.652;-2.730;2023-09-08T07:25:48;25.20;70.40
81192;DHT22;70665;47.652;-2.730;2023-09-08T07:28:15;25.30;70.00
81192;DHT22;70665;47.652;-2.730;2023-09-08T07:30:41;25.20;70.30
81192;DHT22;70665;47.652;-2.730;2023-09-08T07:33:07;25.30;70.50
81192;DHT22;70665;47.652;-2.730;2023-09-08T07:35:36;25.30;71.30
81192;DHT22;70665;47.652;-2.730;2023-09-08T07:38:02;25.40;70.30
81192;DHT22;70665;47.652;-2.730;2023-09-08T07:40:27;25.50;70.10
81192;DHT22;70665;47.652;-2.730;2023-09-08T07:42:53;25.50;70.30
81192;DHT22;70665;47.652;-2.730;2023-09-08T07:45:18;25.60;69.80
81192;DHT22;70665;47.652;-2.730;2023-09-08T07:47:44;25.70;69.60
81192;DHT22;70665;47.652;-2.730;2023-09-08T07:50:27;25.70;71.90
81192;DHT22;70665;47.652;-2.730;2023-09-08T07:52:57;25.80;70.10
81192;DHT22;70665;47.652;-2.730;2023-09-08T07:55:23;25.80;69.90
81192;DHT22;70665;47.652;-2.730;2023-09-08T07:57:50;25.80;69.80
81192;DHT22;70665;47.652;-2.730;2023-09-08T08:00:16;25.80;70.20
81192;DHT22;70665;47.652;-2.730;2023-09-08T08:02:47;25.80;70.00
81192;DHT22;70665;47.652;-2.730;2023-09-08T08:05:14;25.80;69.60
81192;DHT22;70665;47.652;-2.730;2023-09-08T08:07:40;25.80;69.60
81192;DHT22;70665;47.652;-2.730;2023-09-08T08:10:07;25.90;69.40
81192;DHT22;70665;47.652;-2.730;2023-09-08T08:12:32;25.90;69.30
81192;DHT22;70665;47.652;-2.730;2023-09-08T08:14:58;26.00;69.50
81192;DHT22;70665;47.652;-2.730;2023-09-08T08:17:26;26.00;70.00
81192;DHT22;70665;47.652;-2.730;2023-09-08T08:19:54;26.00;69.70
81192;DHT22;70665;47.652;-2.730;2023-09-08T08:22:20;26.10;69.40
81192;DHT22;70665;47.652;-2.730;2023-09-08T08:24:45;26.10;69.50
81192;DHT22;70665;47.652;-2.730;2023-09-08T08:27:11;26.20;69.50
81192;DHT22;70665;47.652;-2.730;2023-09-08T08:29:37;26.40;69.40
81192;DHT22;70665;47.652;-2.730;2023-09-08T08:32:03;26.50;69.30
81192;DHT22;70665;47.652;-2.730;2023-09-08T08:34:28;26.60;68.90
81192;DHT22;70665;47.652;-2.730;2023-09-08T08:36:54;26.60;68.80
81192;DHT22;70665;47.652;-2.730;2023-09-08T08:39:19;26.80;68.40
81192;DHT22;70665;47.652;-2.730;2023-09-08T08:41:45;26.90;68.50
81192;DHT22;70665;47.652;-2.730;2023-09-08T08:44:11;26.90;68.40
81192;DHT22;70665;47.652;-2.730;2023-09-08T08:46:37;27.00;68.30
81192;DHT22;70665;47.652;-2.730;2023-09-08T08:49:04;27.10;68.00
81192;DHT22;70665;47.652;-2.730;2023-09-08T08:51:31;27.20;67.70
81192;DHT22;70665;47.652;-2.730;2023-09-08T08:53:57;27.20;67.80
81192;DHT22;70665;47.652;-2.730;2023-09-08T08:56:23;27.30;67.60
81192;DHT22;70665;47.652;-2.730;2023-09-08T08:58:50;27.30;67.80
81192;DHT22;70665;47.652;-2.730;2023-09-08T09:01:16;27.50;67.00
81192;DHT22;70665;47.652;-2.730;2023-09-08T09:03:49;27.50;67.20
81192;DHT22;70665;47.652;-2.730;2023-09-08T09:06:15;27.60;66.30
81192;DHT22;70665;47.652;-2.730;2023-09-08T09:08:43;27.60;66.30
81192;DHT22;70665;47.652;-2.730;2023-09-08T09:11:10;27.80;66.10
81192;DHT22;70665;47.652;-2.730;2023-09-08T09:13:35;27.80;65.10
81192;DHT22;70665;47.652;-2.730;2023-09-08T09:16:01;27.70;64.70
81192;DHT22;70665;47.652;-2.730;2023-09-08T09:18:32;27.80;64.70
81192;DHT22;70665;47.652;-2.730;2023-09-08T09:21:01;28.00;63.40
81192;DHT22;70665;47.652;-2.730;2023-09-08T09:23:32;28.10;62.90
81192;DHT22;70665;47.652;-2.730;2023-09-08T09:25:58;28.20;62.70
81192;DHT22;70665;47.652;-2.730;2023-09-08T09:28:24;28.20;62.60
81192;DHT22;70665;47.652;-2.730;2023-09-08T09:30:52;28.30;62.30
81192;DHT22;70665;47.652;-2.730;2023-09-08T09:33:20;28.30;62.30
81192;DHT22;70665;47.652;-2.730;2023-09-08T09:35:53;28.30;62.00
81192;DHT22;70665;47.652;-2.730;2023-09-08T09:38:20;28.30;61.80
81192;DHT22;70665;47.652;-2.730;2023-09-08T09:40:47;28.20;61.90
81192;DHT22;70665;47.652;-2.730;2023-09-08T09:43:14;28.30;61.70
81192;DHT22;70665;47.652;-2.730;2023-09-08T09:45:41;28.40;61.30
81192;DHT22;70665;47.652;-2.730;2023-09-08T09:48:08;28.70;60.70
81192;DHT22;70665;47.652;-2.730;2023-09-08T09:50:37;28.90;60.30
81192;DHT22;70665;47.652;-2.730;2023-09-08T09:53:12;29.20;58.00
81192;DHT22;70665;47.652;-2.730;2023-09-08T09:55:40;29.50;59.00
81192;DHT22;70665;47.652;-2.730;2023-09-08T09:58:06;29.70;58.20
81192;DHT22;70665;47.652;-2.730;2023-09-08T10:00:33;29.90;58.40
81192;DHT22;70665;47.652;-2.730;2023-09-08T10:03:00;30.00;58.30
81192;DHT22;70665;47.652;-2.730;2023-09-08T10:05:27;30.20;56.80
81192;DHT22;70665;47.652;-2.730;2023-09-08T10:07:53;30.30;56.70
81192;DHT22;70665;47.652;-2.730;2023-09-08T10:10:20;30.40;55.00
81192;DHT22;70665;47.652;-2.730;2023-09-08T10:12:55;30.40;53.10
81192;DHT22;70665;47.652;-2.730;2023-09-08T10:15:23;30.60;55.30
81192;DHT22;70665;47.652;-2.730;2023-09-08T10:17:54;30.70;52.90
81192;DHT22;70665;47.652;-2.730;2023-09-08T10:20:26;30.80;53.50
81192;DHT22;70665;47.652;-2.730;2023-09-08T10:22:56;31.00;53.00
81192;DHT22;70665;47.652;-2.730;2023-09-08T10:25:24;31.00;52.40
81192;DHT22;70665;47.652;-2.730;2023-09-08T10:27:50;31.00;54.60
81192;DHT22;70665;47.652;-2.730;2023-09-08T10:30:16;31.20;54.10
81192;DHT22;70665;47.652;-2.730;2023-09-08T10:32:43;31.20;54.10
81192;DHT22;70665;47.652;-2.730;2023-09-08T10:35:09;31.20;54.20
81192;DHT22;70665;47.652;-2.730;2023-09-08T10:37:35;31.30;54.40
81192;DHT22;70665;47.652;-2.730;2023-09-08T10:42:47;31.20;54.60
81192;DHT22;70665;47.652;-2.730;2023-09-08T10:45:17;31.20;53.00
81192;DHT22;70665;47.652;-2.730;2023-09-08T10:50:28;31.60;51.90
81192;DHT22;70665;47.652;-2.730;2023-09-08T10:55:53;32.00;51.70
81192;DHT22;70665;47.652;-2.730;2023-09-08T10:58:36;32.30;50.90
81192;DHT22;70665;47.652;-2.730;2023-09-08T11:01:04;32.60;52.60
81192;DHT22;70665;47.652;-2.730;2023-09-08T11:06:05;32.90;52.40
81192;DHT22;70665;47.652;-2.730;2023-09-08T11:08:33;32.70;49.20
81192;DHT22;70665;47.652;-2.730;2023-09-08T11:10:59;32.50;53.90
81192;DHT22;70665;47.652;-2.730;2023-09-08T11:13:26;32.30;54.40
81192;DHT22;70665;47.652;-2.730;2023-09-08T11:15:53;32.00;55.10
81192;DHT22;70665;47.652;-2.730;2023-09-08T11:18:26;31.80;50.90
81192;DHT22;70665;47.652;-2.730;2023-09-08T11:20:52;31.60;50.80
81192;DHT22;70665;47.652;-2.730;2023-09-08T11:23:18;31.70;54.40
81192;DHT22;70665;47.652;-2.730;2023-09-08T11:25:45;31.70;52.90
81192;DHT22;70665;47.652;-2.730;2023-09-08T11:28:11;31.80;53.40
81192;DHT22;70665;47.652;-2.730;2023-09-08T11:30:38;32.00;52.20
81192;DHT22;70665;47.652;-2.730;2023-09-08T11:33:07;32.00;52.60
81192;DHT22;70665;47.652;-2.730;2023-09-08T11:35:39;31.90;54.00
81192;DHT22;70665;47.652;-2.730;2023-09-08T11:38:04;31.90;53.50
81192;DHT22;70665;47.652;-2.730;2023-09-08T11:40:30;31.80;53.70
81192;DHT22;70665;47.652;-2.730;2023-09-08T11:42:56;31.70;53.50
81192;DHT22;70665;47.652;-2.730;2023-09-08T11:45:22;31.60;54.50
81192;DHT22;70665;47.652;-2.730;2023-09-08T11:47:49;31.40;54.70
81192;DHT22;70665;47.652;-2.730;2023-09-08T11:50:15;31.40;55.10
81192;DHT22;70665;47.652;-2.730;2023-09-08T11:52:44;31.30;55.20
81192;DHT22;70665;47.652;-2.730;2023-09-08T11:55:11;31.20;55.80
81192;DHT22;70665;47.652;-2.730;2023-09-08T11:57:39;31.20;55.80
81192;DHT22;70665;47.652;-2.730;2023-09-08T12:00:05;31.20;55.50
81192;DHT22;70665;47.652;-2.730;2023-09-08T12:02:36;31.10;53.80
81192;DHT22;70665;47.652;-2.730;2023-09-08T12:05:04;31.00;54.30
81192;DHT22;70665;47.652;-2.730;2023-09-08T12:07:30;31.10;55.30
81192;DHT22;70665;47.652;-2.730;2023-09-08T12:09:56;31.30;55.30
81192;DHT22;70665;47.652;-2.730;2023-09-08T12:12:25;31.50;53.70
81192;DHT22;70665;47.652;-2.730;2023-09-08T12:14:52;31.70;54.10
81192;DHT22;70665;47.652;-2.730;2023-09-08T12:17:17;32.20;53.60
81192;DHT22;70665;47.652;-2.730;2023-09-08T12:19:43;32.70;52.60
81192;DHT22;70665;47.652;-2.730;2023-09-08T12:22:09;33.10;51.80
81192;DHT22;70665;47.652;-2.730;2023-09-08T12:27:12;33.50;50.90
81192;DHT22;70665;47.652;-2.730;2023-09-08T12:29:37;33.70;50.70
81192;DHT22;70665;47.652;-2.730;2023-09-08T12:32:03;33.90;50.30
81192;DHT22;70665;47.652;-2.730;2023-09-08T12:34:29;34.10;49.40
81192;DHT22;70665;47.652;-2.730;2023-09-08T12:36:57;34.30;46.80
81192;DHT22;70665;47.652;-2.730;2023-09-08T12:39:23;34.60;48.70
81192;DHT22;70665;47.652;-2.730;2023-09-08T12:41:49;34.70;49.10
81192;DHT22;70665;47.652;-2.730;2023-09-08T12:44:14;34.80;48.90
81192;DHT22;70665;47.652;-2.730;2023-09-08T12:46:40;35.00;45.30
81192;DHT22;70665;47.652;-2.730;2023-09-08T12:49:05;35.10;47.40
81192;DHT22;70665;47.652;-2.730;2023-09-08T12:51:31;35.10;49.00
81192;DHT22;70665;47.652;-2.730;2023-09-08T12:53:57;35.30;47.90
81192;DHT22;70665;47.652;-2.730;2023-09-08T12:56:22;35.20;47.70
81192;DHT22;70665;47.652;-2.730;2023-09-08T12:58:48;34.90;45.90
81192;DHT22;70665;47.652;-2.730;2023-09-08T13:01:13;34.70;48.70
81192;DHT22;70665;47.652;-2.730;2023-09-08T13:03:39;34.50;49.50
81192;DHT22;70665;47.652;-2.730;2023-09-08T13:06:05;34.60;49.10
81192;DHT22;70665;47.652;-2.730;2023-09-08T13:08:31;34.70;48.60
81192;DHT22;70665;47.652;-2.730;2023-09-08T13:10:56;35.00;47.80
81192;DHT22;70665;47.652;-2.730;2023-09-08T13:13:22;35.50;47.40
81192;DHT22;70665;47.652;-2.730;2023-09-08T13:15:47;36.20;46.50
81192;DHT22;70665;47.652;-2.730;2023-09-08T13:18:15;36.20;42.30
81192;DHT22;70665;47.652;-2.730;2023-09-08T13:20:40;36.30;46.40
81192;DHT22;70665;47.652;-2.730;2023-09-08T13:23:06;35.90;47.00
81192;DHT22;70665;47.652;-2.730;2023-09-08T13:25:31;36.10;47.20
81192;DHT22;70665;47.652;-2.730;2023-09-08T13:27:57;36.60;45.70
81192;DHT22;70665;47.652;-2.730;2023-09-08T13:30:22;37.10;44.40
81192;DHT22;70665;47.652;-2.730;2023-09-08T13:32:52;38.00;43.30
81192;DHT22;70665;47.652;-2.730;2023-09-08T13:35:17;38.60;43.50
81192;DHT22;70665;47.652;-2.730;2023-09-08T13:37:43;38.40;44.10
81192;DHT22;70665;47.652;-2.730;2023-09-08T13:40:09;38.20;44.00
81192;DHT22;70665;47.652;-2.730;2023-09-08T13:42:35;38.50;43.70
81192;DHT22;70665;47.652;-2.730;2023-09-08T13:45:00;38.40;42.80
81192;DHT22;70665;47.652;-2.730;2023-09-08T13:47:26;38.70;43.00
81192;DHT22;70665;47.652;-2.730;2023-09-08T13:49:52;39.50;41.90
81192;DHT22;70665;47.652;-2.730;2023-09-08T13:52:18;40.80;38.60
81192;DHT22;70665;47.652;-2.730;2023-09-08T13:54:44;41.50;39.20
81192;DHT22;70665;47.652;-2.730;2023-09-08T13:57:09;41.90;36.30
81192;DHT22;70665;47.652;-2.730;2023-09-08T13:59:35;42.90;38.20
81192;DHT22;70665;47.652;-2.730;2023-09-08T14:02:01;42.80;37.00
81192;DHT22;70665;47.652;-2.730;2023-09-08T14:04:29;42.00;39.20
81192;DHT22;70665;47.652;-2.730;2023-09-08T14:06:55;41.00;40.40
81192;DHT22;70665;47.652;-2.730;2023-09-08T14:09:20;39.80;40.50
81192;DHT22;70665;47.652;-2.730;2023-09-08T14:11:46;39.20;42.00
81192;DHT22;70665;47.652;-2.730;2023-09-08T14:14:11;39.80;40.60
81192;DHT22;70665;47.652;-2.730;2023-09-08T14:16:37;39.80;39.90
81192;DHT22;70665;47.652;-2.730;2023-09-08T14:19:03;39.60;41.10
81192;DHT22;70665;47.652;-2.730;2023-09-08T14:21:28;39.30;41.90
81192;DHT22;70665;47.652;-2.730;2023-09-08T14:23:54;38.90;41.50
81192;DHT22;70665;47.652;-2.730;2023-09-08T14:26:20;38.70;42.90
81192;DHT22;70665;47.652;-2.730;2023-09-08T14:28:46;38.70;42.40
81192;DHT22;70665;47.652;-2.730;2023-09-08T14:31:12;39.20;42.00
81192;DHT22;70665;47.652;-2.730;2023-09-08T14:33:37;39.90;40.40
81192;DHT22;70665;47.652;-2.730;2023-09-08T14:36:03;40.90;38.60
81192;DHT22;70665;47.652;-2.730;2023-09-08T14:38:28;40.90;39.80
81192;DHT22;70665;47.652;-2.730;2023-09-08T14:40:59;40.30;39.70
81192;DHT22;70665;47.652;-2.730;2023-09-08T14:43:26;40.10;40.20
81192;DHT22;70665;47.652;-2.730;2023-09-08T14:45:52;40.40;40.30
81192;DHT22;70665;47.652;-2.730;2023-09-08T14:48:18;40.00;40.60
81192;DHT22;70665;47.652;-2.730;2023-09-08T14:50:44;39.40;41.80
81192;DHT22;70665;47.652;-2.730;2023-09-08T14:53:10;38.90;41.00
81192;DHT22;70665;47.652;-2.730;2023-09-08T14:55:35;38.30;42.60
81192;DHT22;70665;47.652;-2.730;2023-09-08T14:58:01;37.90;41.50
81192;DHT22;70665;47.652;-2.730;2023-09-08T15:00:27;37.40;43.30
81192;DHT22;70665;47.652;-2.730;2023-09-08T15:02:53;37.10;43.60
81192;DHT22;70665;47.652;-2.730;2023-09-08T15:05:19;36.90;43.50
81192;DHT22;70665;47.652;-2.730;2023-09-08T15:07:45;36.80;44.00
81192;DHT22;70665;47.652;-2.730;2023-09-08T15:10:10;36.70;43.70
81192;DHT22;70665;47.652;-2.730;2023-09-08T15:12:36;36.40;43.90
81192;DHT22;70665;47.652;-2.730;2023-09-08T15:15:02;36.10;44.50
81192;DHT22;70665;47.652;-2.730;2023-09-08T15:17:29;36.00;44.60
81192;DHT22;70665;47.652;-2.730;2023-09-08T15:19:54;35.80;44.50
81192;DHT22;70665;47.652;-2.730;2023-09-08T15:22:20;35.60;44.30
81192;DHT22;70665;47.652;-2.730;2023-09-08T15:24:46;35.40;44.90